Time;durP1;ratioP1;P1;durP2;ratioP2;P2;SDS_P1;SDS_P2;PMS_P1;PMS_P2;Temp;Humidity;BMP_temperature;BMP_pressure;BME280_temperature;BME280_humidity;BME280_pressure;Samples;Min_cycle;Max_cycle;Signal;HPM_P1;HPM_P2
2023/08/27 00:00:38;;;;;;;12.10;10.35;;;22.50;99.90;;;;;;5064805;28;20224;-68
2023/08/27 00:03:28;;;;;;;14.93;10.57;;;22.50;1.00;;;;;;5053263;28;20239;-71
2023/08/27 00:06:19;;;;;;;11.02;9.93;;;22.50;1.00;;;;;;5060231;28;20223;-70
2023/08/27 00:09:08;;;;;;;12.40;9.32;;;22.50;1.00;;;;;;5064545;28;20223;-70
2023/08/27 00:11:56;;;;;;;10.23;9.10;;;22.60;1.00;;;;;;5063021;28;20242;-70
2023/08/27 00:14:45;;;;;;;11.40;9.30;;;22.50;1.00;;;;;;5065579;28;20220;-70
2023/08/27 00:17:35;;;;;;;11.07;7.95;;;22.50;99.90;;;;;;5061427;28;20262;-71
2023/08/27 00:20:23;;;;;;;9.13;7.93;;;22.50;99.90;;;;;;5055890;28;20277;-70
2023/08/27 00:23:14;;;;;;;12.13;7.57;;;22.60;99.90;;;;;;5050233;28;20224;-72
2023/08/27 00:26:03;;;;;;;11.98;7.93;;;22.60;1.00;;;;;;5069016;28;20282;-70
2023/08/27 00:28:52;;;;;;;12.88;8.60;;;22.60;1.00;;;;;;5039169;28;20228;-71
2023/08/27 00:31:43;;;;;;;12.20;8.25;;;22.50;99.90;;;;;;5058705;28;20243;-71
2023/08/27 00:34:33;;;;;;;9.80;7.95;;;22.50;1.00;;;;;;5066009;28;20236;-70
2023/08/27 00:37:22;;;;;;;12.70;8.32;;;22.60;99.90;;;;;;5067383;28;20407;-70
2023/08/27 00:40:14;;;;;;;9.57;8.07;;;22.60;1.00;;;;;;5063567;28;20223;-70
2023/08/27 00:43:03;;;;;;;8.55;7.43;;;22.60;1.00;;;;;;5056590;28;20981;-70
2023/08/27 00:45:52;;;;;;;8.70;7.60;;;22.50;1.00;;;;;;5062553;28;20219;-71
2023/08/27 00:48:41;;;;;;;10.98;7.55;;;22.50;1.00;;;;;;5060238;28;20601;-69
2023/08/27 00:51:31;;;;;;;11.63;8.05;;;22.50;1.00;;;;;;5062407;28;20235;-71
2023/08/27 00:54:20;;;;;;;12.57;8.38;;;22.50;1.00;;;;;;5067762;28;20280;-70
2023/08/27 00:57:11;;;;;;;10.45;8.27;;;22.50;1.00;;;;;;5063512;28;20216;-69
2023/08/27 01:00:00;;;;;;;13.27;6.82;;;22.50;99.90;;;;;;5054817;28;20234;-70
2023/08/27 01:02:49;;;;;;;8.73;6.72;;;22.50;1.00;;;;;;5063285;28;20228;-68
2023/08/27 01:05:38;;;;;;;8.15;6.43;;;22.50;1.00;;;;;;5057307;28;20378;-69
2023/08/27 01:08:35;;;;;;;9.02;5.80;;;22.50;1.00;;;;;;5076401;28;20230;-68
2023/08/27 01:11:30;;;;;;;7.70;5.60;;;22.50;1.00;;;;;;5062344;28;20233;-71
2023/08/27 01:14:23;;;;;;;9.95;6.25;;;22.60;1.00;;;;;;5062399;28;20215;-69
2023/08/27 01:17:13;;;;;;;7.93;5.93;;;22.60;99.90;;;;;;5062168;28;20698;-69
2023/08/27 01:20:05;;;;;;;8.52;5.55;;;22.60;1.00;;;;;;5070197;28;21013;-69
2023/08/27 01:22:56;;;;;;;7.03;5.65;;;22.60;99.90;;;;;;5054456;28;20219;-71
2023/08/27 01:25:48;;;;;;;7.43;5.25;;;22.60;99.90;;;;;;5074329;28;20250;-70
2023/08/27 01:28:45;;;;;;;8.75;4.97;;;22.50;1.00;;;;;;5064318;28;20250;-69
2023/08/27 01:31:44;;;;;;;7.28;5.00;;;22.60;1.00;;;;;;5062375;28;20642;-71
2023/08/27 01:34:34;;;;;;;6.68;5.13;;;22.60;1.00;;;;;;5061323;28;20226;-71
2023/08/27 01:37:23;;;;;;;8.43;4.80;;;22.60;99.90;;;;;;5056466;28;20236;-70
2023/08/27 01:40:13;;;;;;;8.32;5.45;;;22.60;1.00;;;;;;5063858;28;20713;-70
2023/08/27 01:43:02;;;;;;;7.30;5.20;;;22.60;1.00;;;;;;5058010;28;20701;-70
2023/08/27 01:45:52;;;;;;;7.80;5.43;;;22.60;1.00;;;;;;5065082;28;20690;-69
2023/08/27 01:48:41;;;;;;;8.77;5.38;;;22.60;99.90;;;;;;5060329;28;20215;-70
2023/08/27 01:51:30;;;;;;;8.23;5.47;;;22.60;1.00;;;;;;5080576;28;21045;-69
2023/08/27 01:54:18;;;;;;;8.30;5.57;;;22.50;22.50;;;;;;5060994;28;20235;-69
2023/08/27 01:57:09;;;;;;;10.88;6.00;;;22.60;1.00;;;;;;5059653;28;20595;-68
2023/08/27 01:59:58;;;;;;;10.20;6.00;;;22.50;99.90;;;;;;5057145;28;20228;-69
2023/08/27 02:02:47;;;;;;;9.43;5.68;;;22.60;1.00;;;;;;5052079;28;20220;-68
2023/08/27 02:05:36;;;;;;;9.90;5.95;;;22.50;1.00;;;;;;5052421;28;20231;-69
2023/08/27 02:08:25;;;;;;;8.75;5.82;;;22.50;1.00;;;;;;5065919;28;20216;-70
2023/08/27 02:11:14;;;;;;;9.27;5.75;;;22.50;99.90;;;;;;5061443;28;20319;-71
2023/08/27 02:14:05;;;;;;;7.70;5.90;;;22.40;99.90;;;;;;5079412;28;20725;-72
2023/08/27 02:16:54;;;;;;;7.68;5.93;;;22.50;1.00;;;;;;5054302;28;20230;-72
2023/08/27 02:19:43;;;;;;;9.38;6.00;;;22.50;99.90;;;;;;5055321;28;20223;-71
2023/08/27 02:22:32;;;;;;;9.07;5.85;;;22.50;99.90;;;;;;5066119;28;20683;-70
2023/08/27 02:25:21;;;;;;;9.90;6.13;;;22.50;1.00;;;;;;5058396;28;20245;-71
2023/08/27 02:28:10;;;;;;;8.32;5.88;;;22.50;99.90;;;;;;5060848;28;20393;-70
2023/08/27 02:31:00;;;;;;;7.53;6.13;;;22.50;99.90;;;;;;5069636;28;20216;-71
2023/08/27 02:33:49;;;;;;;7.22;5.72;;;22.50;1.00;;;;;;5058482;28;20216;-71
2023/08/27 02:36:38;;;;;;;10.68;6.75;;;22.50;99.90;;;;;;5062110;28;20231;-72
2023/08/27 02:39:27;;;;;;;8.98;6.03;;;22.50;1.00;;;;;;5060992;28;20215;-69
2023/08/27 02:42:16;;;;;;;9.77;6.55;;;22.40;1.00;;;;;;5081211;28;20226;-71
2023/08/27 02:45:06;;;;;;;10.65;6.75;;;22.40;1.00;;;;;;5064227;28;20241;-71
2023/08/27 02:47:56;;;;;;;10.98;6.07;;;22.30;1.00;;;;;;5082293;28;20775;-72
2023/08/27 02:50:45;;;;;;;6.70;5.90;;;22.20;1.00;;;;;;5069048;28;20215;-70
2023/08/27 02:53:34;;;;;;;11.43;7.18;;;22.20;19.20;;;;;;5084650;28;20224;-72
2023/08/27 02:56:23;;;;;;;7.55;6.57;;;22.10;38.70;;;;;;5068432;28;20215;-70
2023/08/27 02:59:12;;;;;;;11.18;6.97;;;22.10;99.90;;;;;;5079801;28;20235;-69
2023/08/27 03:02:01;;;;;;;7.68;6.30;;;22.10;99.90;;;;;;5064123;28;21018;-71
2023/08/27 03:04:51;;;;;;;11.40;7.28;;;22.00;1.00;;;;;;5080399;28;20661;-69
2023/08/27 03:07:42;;;;;;;8.13;6.43;;;22.00;29.90;;;;;;5063337;28;20234;-69
2023/08/27 03:10:31;;;;;;;8.95;7.20;;;22.00;1.00;;;;;;5056143;28;20224;-70
2023/08/27 03:13:20;;;;;;;11.45;6.95;;;22.00;1.00;;;;;;5048345;28;20223;-70
2023/08/27 03:16:09;;;;;;;8.30;7.28;;;22.00;99.90;;;;;;5061260;28;20227;-69
2023/08/27 03:18:58;;;;;;;10.23;7.25;;;22.00;1.00;;;;;;5066933;28;20228;-70
2023/08/27 03:21:49;;;;;;;9.90;7.53;;;22.00;1.00;;;;;;5039187;28;20216;-69
2023/08/27 03:24:41;;;;;;;10.10;8.02;;;22.00;1.00;;;;;;5064502;28;20242;-71
2023/08/27 03:27:33;;;;;;;9.25;7.40;;;21.90;99.90;;;;;;5063670;28;20236;-71
2023/08/27 03:30:22;;;;;;;10.90;7.55;;;21.90;1.00;;;;;;5062500;28;20224;-70
2023/08/27 03:33:11;;;;;;;11.45;8.05;;;21.90;99.90;;;;;;5071978;28;20950;-70
2023/08/27 03:36:01;;;;;;;8.30;7.10;;;21.90;1.00;;;;;;5075606;28;20562;-71
2023/08/27 03:38:54;;;;;;;14.10;7.65;;;21.90;1.00;;;;;;5062353;28;20694;-69
2023/08/27 03:41:44;;;;;;;10.40;7.43;;;21.80;1.00;;;;;;5062732;28;20224;-70
2023/08/27 03:44:36;;;;;;;13.07;7.90;;;21.80;1.00;;;;;;5063389;28;20227;-69
2023/08/27 03:47:25;;;;;;;10.38;7.95;;;21.70;1.00;;;;;;5069190;28;20318;-70
2023/08/27 03:50:14;;;;;;;14.25;8.65;;;21.70;1.00;;;;;;5055389;28;20246;-70
2023/08/27 03:53:05;;;;;;;14.20;8.38;;;21.70;1.00;;;;;;5062122;28;20234;-70
2023/08/27 03:55:55;;;;;;;9.45;7.88;;;21.60;1.00;;;;;;5075463;28;21039;-71
2023/08/27 03:58:44;;;;;;;11.57;8.30;;;21.60;1.00;;;;;;5066447;28;20255;-70
2023/08/27 04:01:34;;;;;;;11.13;8.13;;;21.70;29.00;;;;;;5064202;28;20392;-70
2023/08/27 04:04:23;;;;;;;11.23;8.48;;;21.60;1.00;;;;;;5056632;28;20249;-69
2023/08/27 04:07:13;;;;;;;11.73;8.50;;;21.70;99.90;;;;;;5059366;28;20714;-69
2023/08/27 04:10:04;;;;;;;12.05;9.23;;;21.70;1.00;;;;;;5058579;28;20219;-70
2023/08/27 04:12:55;;;;;;;11.68;9.15;;;21.70;76.30;;;;;;5071761;28;20834;-70
2023/08/27 04:15:45;;;;;;;9.75;8.10;;;21.80;29.60;;;;;;5061430;28;20239;-70
2023/08/27 04:18:34;;;;;;;13.30;8.25;;;21.70;1.00;;;;;;5056336;28;20224;-70
2023/08/27 04:21:23;;;;;;;13.98;9.02;;;21.80;1.00;;;;;;5079308;28;20357;-69
2023/08/27 04:24:12;;;;;;;9.63;8.63;;;21.80;1.00;;;;;;5055182;28;20231;-70
2023/08/27 04:27:05;;;;;;;11.23;9.05;;;21.80;1.00;;;;;;5061706;28;20223;-70
2023/08/27 04:29:55;;;;;;;10.88;8.80;;;21.80;1.00;;;;;;5062828;28;20460;-70
2023/08/27 04:32:44;;;;;;;11.73;8.57;;;21.80;1.00;;;;;;5056453;28;20228;-70
2023/08/27 04:35:33;;;;;;;10.77;8.68;;;21.80;1.00;;;;;;5068012;28;20235;-68
2023/08/27 04:38:22;;;;;;;13.07;8.93;;;21.80;1.00;;;;;;5058971;28;20239;-67
2023/08/27 04:41:11;;;;;;;11.68;8.50;;;21.90;1.00;;;;;;5043560;28;20208;-71
2023/08/27 04:44:00;;;;;;;9.88;8.70;;;21.80;99.90;;;;;;5032533;28;20591;-68
2023/08/27 04:46:50;;;;;;;12.48;8.95;;;21.90;1.00;;;;;;5032777;28;20405;-69
2023/08/27 04:49:40;;;;;;;10.15;8.32;;;21.90;99.90;;;;;;5039496;28;20695;-65
2023/08/27 04:52:29;;;;;;;15.85;8.57;;;21.80;1.00;;;;;;5060783;28;20221;-70
2023/08/27 04:55:20;;;;;;;10.23;8.00;;;21.90;99.90;;;;;;5033788;28;20213;-69
2023/08/27 04:58:09;;;;;;;13.27;8.70;;;21.80;1.00;;;;;;5031017;28;20711;-69
2023/08/27 05:00:59;;;;;;;12.48;8.55;;;21.90;1.00;;;;;;5020511;28;20225;-69
2023/08/27 05:03:50;;;;;;;12.80;8.48;;;21.90;1.00;;;;;;5040179;28;20254;-70
2023/08/27 05:06:41;;;;;;;12.25;9.18;;;21.80;16.50;;;;;;5042228;28;20767;-70
2023/08/27 05:09:30;;;;;;;12.35;9.27;;;21.80;99.90;;;;;;5036033;28;20350;-69
2023/08/27 05:12:19;;;;;;;12.20;9.13;;;21.70;99.90;;;;;;5043047;28;20224;-70
2023/08/27 05:15:09;;;;;;;10.68;9.07;;;21.80;99.90;;;;;;5045892;28;20717;-69
2023/08/27 05:17:59;;;;;;;11.98;9.07;;;21.70;99.90;;;;;;5038411;28;20307;-70
2023/08/27 05:20:51;;;;;;;9.90;8.68;;;21.60;1.00;;;;;;5055879;28;20228;-69
2023/08/27 05:23:43;;;;;;;10.95;8.98;;;21.70;99.90;;;;;;5043932;28;20232;-69
2023/08/27 05:26:32;;;;;;;12.15;8.50;;;21.60;1.00;;;;;;5040086;28;20224;-70
2023/08/27 05:29:21;;;;;;;11.98;9.00;;;21.60;99.90;;;;;;5060751;28;20215;-70
2023/08/27 05:32:10;;;;;;;12.25;8.82;;;21.60;1.00;;;;;;5041143;28;20703;-68
2023/08/27 05:35:02;;;;;;;11.75;8.23;;;21.60;1.00;;;;;;5037916;28;20592;-70
2023/08/27 05:37:53;;;;;;;13.55;9.48;;;21.70;1.00;;;;;;5059241;28;20213;-69
2023/08/27 05:40:41;;;;;;;13.38;9.68;;;21.70;99.90;;;;;;5061325;28;20318;-69
2023/08/27 05:43:30;;;;;;;14.93;9.38;;;21.70;99.90;;;;;;5058599;28;20735;-71
2023/08/27 05:46:20;;;;;;;12.85;9.00;;;21.80;1.00;;;;;;5074945;28;20227;-69
2023/08/27 05:49:09;;;;;;;14.88;10.23;;;21.80;1.00;;;;;;5061245;28;20235;-69
2023/08/27 05:51:59;;;;;;;11.48;9.18;;;21.80;99.90;;;;;;5061014;28;20215;-70
2023/08/27 05:54:49;;;;;;;12.82;9.60;;;21.90;52.00;;;;;;5062801;28;20223;-70
2023/08/27 05:57:38;;;;;;;13.07;9.88;;;21.80;99.90;;;;;;5075754;28;20270;-70
2023/08/27 06:00:28;;;;;;;13.73;10.02;;;21.80;99.90;;;;;;5055890;28;20288;-69
2023/08/27 06:03:16;;;;;;;12.25;8.95;;;21.90;1.00;;;;;;5045171;28;20227;-68
2023/08/27 06:06:05;;;;;;;13.98;9.98;;;22.10;1.00;;;;;;5058959;28;20247;-68
2023/08/27 06:08:54;;;;;;;13.57;10.43;;;22.10;1.00;;;;;;5057924;28;20230;-69
2023/08/27 06:11:45;;;;;;;14.55;9.90;;;22.20;1.00;;;;;;5058348;28;20220;-70
2023/08/27 06:14:35;;;;;;;12.60;10.18;;;22.40;1.00;;;;;;5047604;28;20231;-69
2023/08/27 06:17:24;;;;;;;11.18;9.82;;;22.50;99.90;;;;;;5059365;28;20404;-68
2023/08/27 06:20:13;;;;;;;14.52;9.95;;;22.70;99.90;;;;;;5064882;28;20230;-69
2023/08/27 06:23:04;;;;;;;12.68;10.05;;;22.70;96.40;;;;;;5064912;28;20230;-70
2023/08/27 06:25:54;;;;;;;12.50;10.52;;;22.70;97.40;;;;;;5053477;28;20694;-71
2023/08/27 06:28:46;;;;;;;15.35;10.88;;;22.70;1.00;;;;;;5053093;28;20633;-71
2023/08/27 06:31:35;;;;;;;11.95;9.70;;;22.60;99.90;;;;;;5058902;28;20219;-69
2023/08/27 06:34:25;;;;;;;12.50;9.32;;;22.70;1.00;;;;;;5064313;28;20757;-72
2023/08/27 06:37:14;;;;;;;11.13;9.30;;;22.90;99.90;;;;;;5059326;28;20238;-70
2023/08/27 06:40:04;;;;;;;10.30;8.88;;;23.10;99.90;;;;;;5060645;28;20223;-72
2023/08/27 06:42:53;;;;;;;11.32;9.23;;;23.20;1.00;;;;;;5072111;28;20958;-72
2023/08/27 06:45:45;;;;;;;9.68;8.50;;;23.20;1.00;;;;;;5067456;28;20223;-70
2023/08/27 06:48:34;;;;;;;10.75;8.00;;;23.20;1.00;;;;;;5040579;28;20323;-70
2023/08/27 06:51:23;;;;;;;12.13;9.23;;;23.40;1.00;;;;;;5056211;28;20285;-70
2023/08/27 06:54:12;;;;;;;11.70;9.15;;;23.40;99.90;;;;;;5040834;28;20220;-70
2023/08/27 06:57:01;;;;;;;9.68;8.07;;;23.60;46.70;;;;;;5042831;28;20219;-69
2023/08/27 06:59:50;;;;;;;15.15;8.23;;;23.70;99.90;;;;;;5061014;28;21487;-71
2023/08/27 07:02:41;;;;;;;10.15;7.68;;;23.80;1.00;;;;;;5051735;28;20231;-72
2023/08/27 07:05:31;;;;;;;10.07;7.13;;;24.10;1.00;;;;;;5072969;28;20224;-69
2023/08/27 07:08:20;;;;;;;11.18;7.75;;;24.30;99.90;;;;;;5053820;28;20307;-70
2023/08/27 07:11:11;;;;;;;10.35;6.93;;;24.60;99.90;;;;;;5055451;28;20220;-70
2023/08/27 07:14:01;;;;;;;8.02;6.28;;;24.60;1.00;;;;;;5046576;28;20219;-72
2023/08/27 07:16:50;;;;;;;9.75;6.53;;;24.70;1.00;;;;;;5065655;28;20251;-71
2023/08/27 07:19:40;;;;;;;8.65;6.20;;;25.00;1.00;;;;;;5042432;28;20540;-71
2023/08/27 07:22:29;;;;;;;8.18;6.13;;;25.30;1.00;;;;;;5048546;28;20971;-70
2023/08/27 07:25:21;;;;;;;7.07;5.93;;;24.90;99.90;;;;;;5041353;28;20228;-70
2023/08/27 07:28:11;;;;;;;7.10;6.40;;;25.10;99.90;;;;;;5039516;28;20266;-72
2023/08/27 07:31:00;;;;;;;9.13;6.05;;;25.20;99.90;;;;;;5043623;28;20690;-72
2023/08/27 07:33:49;;;;;;;8.65;6.00;;;25.30;99.90;;;;;;5039684;28;20224;-72
2023/08/27 07:36:39;;;;;;;7.07;6.07;;;25.40;1.00;;;;;;5063388;28;20238;-71
2023/08/27 07:39:28;;;;;;;9.20;6.18;;;25.30;1.00;;;;;;5077816;28;20290;-71
2023/08/27 07:42:17;;;;;;;8.10;6.32;;;25.60;99.90;;;;;;5057616;28;20220;-71
2023/08/27 07:45:07;;;;;;;7.78;6.57;;;25.70;1.00;;;;;;5077138;28;20223;-72
2023/08/27 07:47:56;;;;;;;7.80;6.05;;;25.80;99.90;;;;;;5070394;28;20233;-72
2023/08/27 07:50:46;;;;;;;8.43;6.05;;;26.10;99.90;;;;;;5083313;28;20231;-71
2023/08/27 07:53:36;;;;;;;9.32;6.78;;;26.10;99.90;;;;;;5059497;28;20220;-72
2023/08/27 07:56:26;;;;;;;7.40;6.07;;;26.20;99.90;;;;;;5061067;28;20235;-71
2023/08/27 07:59:16;;;;;;;12.15;6.43;;;26.30;99.90;;;;;;5065960;28;20230;-69
2023/08/27 08:02:09;;;;;;;9.10;6.28;;;26.30;99.90;;;;;;5038791;28;20303;-72
2023/08/27 08:04:58;;;;;;;11.63;6.05;;;26.50;99.90;;;;;;5064880;28;20355;-71
2023/08/27 08:07:47;;;;;;;7.65;6.00;;;26.90;99.90;;;;;;5087315;28;20219;-73
2023/08/27 08:10:37;;;;;;;8.27;6.05;;;27.30;99.90;;;;;;5090123;28;20220;-72
2023/08/27 08:13:29;;;;;;;7.75;5.80;;;27.50;99.90;;;;;;5100765;28;20698;-71
2023/08/27 08:16:19;;;;;;;7.85;6.38;;;27.70;99.90;;;;;;5080237;27;20233;-71
2023/08/27 08:19:08;;;;;;;6.35;5.55;;;28.00;99.90;;;;;;5090765;28;20212;-71
2023/08/27 08:21:57;;;;;;;6.85;5.97;;;28.40;99.90;;;;;;5068480;28;20331;-71
2023/08/27 08:24:45;;;;;;;7.07;6.10;;;28.90;99.90;;;;;;5082383;28;20289;-73
2023/08/27 08:27:36;;;;;;;9.60;6.63;;;29.10;99.90;;;;;;5084714;27;20233;-72
2023/08/27 08:30:25;;;;;;;7.90;6.15;;;29.40;29.80;;;;;;5086923;28;20942;-72
2023/08/27 08:33:13;;;;;;;8.25;6.55;;;29.50;41.90;;;;;;5087148;28;20226;-73
2023/08/27 08:36:03;;;;;;;7.57;6.10;;;30.00;29.50;;;;;;5066098;28;20273;-72
2023/08/27 08:38:51;;;;;;;9.32;5.93;;;30.50;14.00;;;;;;5082184;28;20222;-73
2023/08/27 08:41:46;;;;;;;6.18;5.60;;;29.80;7.30;;;;;;5058296;28;20231;-71
2023/08/27 08:44:46;;;;;;;7.28;6.13;;;30.40;10.40;;;;;;5079213;28;20717;-73
2023/08/27 08:47:36;;;;;;;6.43;5.55;;;30.30;8.10;;;;;;5072032;28;20235;-72
2023/08/27 08:50:25;;;;;;;6.78;6.07;;;30.10;1.00;;;;;;5069065;28;20219;-72
2023/08/27 08:53:16;;;;;;;7.82;5.65;;;29.20;12.30;;;;;;5078283;28;20229;-73
2023/08/27 08:56:07;;;;;;;5.95;5.13;;;30.30;9.20;;;;;;5079536;28;20309;-72
2023/08/27 08:58:58;;;;;;;6.13;5.50;;;31.50;1.00;;;;;;5085463;28;20234;-73
2023/08/27 09:01:50;;;;;;;6.25;5.65;;;31.70;1.00;;;;;;5073459;28;20304;-71
2023/08/27 09:04:41;;;;;;;6.55;5.85;;;32.30;1.00;;;;;;5082466;28;20297;-71
2023/08/27 09:07:31;;;;;;;7.55;6.22;;;31.60;1.00;;;;;;5069046;28;20234;-72
2023/08/27 09:10:21;;;;;;;7.47;6.30;;;30.30;1.00;;;;;;5076156;28;20736;-72
2023/08/27 09:13:11;;;;;;;9.20;6.43;;;30.10;1.00;;;;;;5069405;28;20222;-73
2023/08/27 09:16:00;;;;;;;7.13;5.90;;;29.60;1.00;;;;;;5077245;28;20226;-73
2023/08/27 09:18:51;;;;;;;6.78;6.07;;;29.20;26.00;;;;;;5076291;28;20223;-72
2023/08/27 09:21:41;;;;;;;6.72;5.57;;;28.70;65.70;;;;;;5073980;28;20847;-72
2023/08/27 09:24:30;;;;;;;9.55;6.43;;;28.30;53.40;;;;;;5076722;28;20317;-71
2023/08/27 09:27:20;;;;;;;7.75;5.55;;;27.70;99.90;;;;;;5074802;28;20249;-71
2023/08/27 09:30:10;;;;;;;7.30;5.90;;;27.80;99.90;;;;;;5078704;28;20227;-71
2023/08/27 09:32:59;;;;;;;8.57;5.68;;;27.70;99.90;;;;;;5074784;28;20223;-72
2023/08/27 09:35:50;;;;;;;6.63;5.57;;;27.60;99.90;;;;;;5077776;28;20300;-71
2023/08/27 09:38:44;;;;;;;10.18;5.72;;;27.80;99.90;;;;;;5079175;28;20227;-71
2023/08/27 09:41:38;;;;;;;7.45;5.85;;;27.80;98.90;;;;;;5065564;28;20227;-72
2023/08/27 09:44:27;;;;;;;7.03;5.85;;;27.70;97.60;;;;;;5067793;28;20263;-69
2023/08/27 09:47:16;;;;;;;7.65;5.80;;;28.00;99.90;;;;;;5073146;28;20227;-70
2023/08/27 09:50:07;;;;;;;9.57;6.03;;;29.20;60.70;;;;;;5075577;28;20207;-71
2023/08/27 09:53:07;;;;;;;8.68;6.13;;;31.70;1.00;;;;;;5077558;28;20219;-73
2023/08/27 09:55:56;;;;;;;8.02;5.90;;;30.20;1.00;;;;;;5076949;28;20218;-70
2023/08/27 09:58:45;;;;;;;8.65;6.45;;;29.60;6.60;;;;;;5075290;28;20241;-71
2023/08/27 10:01:35;;;;;;;9.23;6.47;;;29.50;17.50;;;;;;5071097;28;20257;-71
2023/08/27 10:04:23;;;;;;;8.57;6.65;;;30.00;6.30;;;;;;5080808;28;20546;-71
2023/08/27 10:07:13;;;;;;;6.40;5.43;;;29.30;17.10;;;;;;5055992;28;20636;-71
2023/08/27 10:10:06;;;;;;;7.95;6.47;;;29.00;30.00;;;;;;5060502;28;20223;-71
2023/08/27 10:12:55;;;;;;;8.50;5.60;;;29.20;25.40;;;;;;5068185;28;20773;-72
2023/08/27 10:15:45;;;;;;;7.07;5.75;;;28.90;56.40;;;;;;5054502;28;20224;-71
2023/08/27 10:18:34;;;;;;;7.97;5.75;;;29.30;37.80;;;;;;5051967;28;20283;-71
2023/08/27 10:21:24;;;;;;;6.75;5.50;;;28.70;36.20;;;;;;5051957;28;20610;-71
2023/08/27 10:24:13;;;;;;;5.55;5.05;;;28.70;45.80;;;;;;5061651;28;20337;-71
2023/08/27 10:27:05;;;;;;;8.00;5.55;;;28.80;31.70;;;;;;5062435;28;20319;-70
2023/08/27 10:29:55;;;;;;;8.07;5.60;;;28.80;33.80;;;;;;5075871;28;20832;-73
2023/08/27 10:32:44;;;;;;;7.88;5.50;;;28.80;34.60;;;;;;5064664;28;20685;-70
2023/08/27 10:35:37;;;;;;;7.55;5.90;;;28.70;42.70;;;;;;5059092;28;20586;-70
2023/08/27 10:38:31;;;;;;;6.10;5.50;;;29.00;31.00;;;;;;5085711;28;20225;-71
2023/08/27 10:41:24;;;;;;;8.80;6.03;;;29.00;29.30;;;;;;5078504;28;20371;-70
2023/08/27 10:44:19;;;;;;;6.82;5.80;;;28.90;33.50;;;;;;5095545;28;20258;-70
2023/08/27 10:47:09;;;;;;;7.57;5.43;;;29.10;32.90;;;;;;5091908;28;20433;-71
2023/08/27 10:50:00;;;;;;;6.38;5.00;;;29.10;30.80;;;;;;5095827;28;20214;-69
2023/08/27 10:52:51;;;;;;;9.77;6.38;;;30.40;13.70;;;;;;5097938;28;20310;-71
2023/08/27 10:55:43;;;;;;;6.80;5.28;;;32.20;1.00;;;;;;5093245;28;20219;-73
2023/08/27 10:58:42;;;;;;;8.95;6.55;;;31.70;1.00;;;;;;5089256;28;20310;-70
2023/08/27 11:01:37;;;;;;;9.05;5.80;;;33.10;1.00;;;;;;5089978;28;20282;-70
2023/08/27 11:04:36;;;;;;;7.70;6.00;;;32.90;1.00;;;;;;5095388;28;20223;-71
2023/08/27 11:07:27;;;;;;;6.53;5.88;;;31.30;1.00;;;;;;5078664;28;20222;-70
2023/08/27 11:10:18;;;;;;;7.55;6.35;;;30.70;1.00;;;;;;5092733;28;20783;-70
2023/08/27 11:13:08;;;;;;;12.63;9.35;;;30.30;2.90;;;;;;5081747;28;20219;-71
2023/08/27 11:15:57;;;;;;;6.47;5.88;;;31.00;1.00;;;;;;5097574;28;20225;-72
2023/08/27 11:18:50;;;;;;;6.43;5.57;;;32.50;1.00;;;;;;5091511;28;20926;-71
2023/08/27 11:22:07;;;;;;;6.85;5.72;;;33.20;1.00;;;;;;5098498;28;20313;-71
2023/08/27 11:24:56;;;;;;;8.27;6.45;;;32.00;1.00;;;;;;5077978;28;20302;-71
2023/08/27 11:27:46;;;;;;;9.15;6.28;;;32.00;1.00;;;;;;5097244;28;20298;-72
2023/08/27 11:30:35;;;;;;;6.45;5.85;;;33.50;1.00;;;;;;5097415;28;20682;-71
2023/08/27 11:33:25;;;;;;;7.60;6.22;;;35.00;1.00;;;;;;5097384;28;20238;-71
2023/08/27 11:36:16;;;;;;;8.18;6.15;;;35.60;1.00;;;;;;5081888;28;20234;-72
2023/08/27 11:39:05;;;;;;;7.78;5.38;;;37.80;1.00;;;;;;5092592;28;20285;-73
2023/08/27 11:41:54;;;;;;;7.88;5.43;;;38.50;1.00;;;;;;5098718;28;20702;-73
2023/08/27 11:44:51;;;;;;;6.22;5.00;;;37.90;1.00;;;;;;5074749;28;20231;-72
2023/08/27 11:47:42;;;;;;;8.13;4.93;;;37.60;1.00;;;;;;5080940;28;20218;-73
2023/08/27 11:50:32;;;;;;;7.13;5.95;;;35.60;1.00;;;;;;5077199;28;20287;-69
2023/08/27 11:53:26;;;;;;;6.93;5.80;;;35.10;1.00;;;;;;5074491;28;20245;-71
2023/08/27 11:56:16;;;;;;;8.43;5.95;;;33.90;1.00;;;;;;5094610;28;20233;-72
2023/08/27 11:59:06;;;;;;;7.63;6.53;;;33.10;1.00;;;;;;5095133;28;20214;-72
2023/08/27 12:01:56;;;;;;;7.15;6.03;;;32.30;1.00;;;;;;5091625;28;20230;-72
2023/08/27 12:04:46;;;;;;;6.45;5.90;;;31.70;1.00;;;;;;5086649;28;20218;-71
2023/08/27 12:07:37;;;;;;;6.85;6.25;;;31.40;1.00;;;;;;5082078;28;20363;-72
2023/08/27 12:10:27;;;;;;;6.25;5.43;;;31.20;1.00;;;;;;5077705;28;20738;-71
2023/08/27 12:13:16;;;;;;;9.82;5.55;;;30.90;1.00;;;;;;5067437;28;20757;-72
2023/08/27 12:16:06;;;;;;;6.95;6.13;;;30.70;1.00;;;;;;5098795;27;20310;-71
2023/08/27 12:19:00;;;;;;;7.57;5.85;;;30.40;1.00;;;;;;5086642;28;20252;-74
2023/08/27 12:21:51;;;;;;;7.32;6.68;;;30.20;1.00;;;;;;5098279;28;20233;-71
2023/08/27 12:24:42;;;;;;;8.05;7.05;;;29.90;1.00;;;;;;5077247;28;20260;-73
2023/08/27 12:27:33;;;;;;;7.78;7.07;;;29.80;3.00;;;;;;5069548;28;20338;-73
2023/08/27 12:30:22;;;;;;;9.82;7.75;;;29.60;12.00;;;;;;5077057;28;20241;-72
2023/08/27 12:33:10;;;;;;;8.40;7.50;;;29.70;12.50;;;;;;5070197;28;20324;-73
2023/08/27 12:36:04;;;;;;;9.20;8.30;;;29.50;22.50;;;;;;5075159;28;20687;-71
2023/08/27 12:38:53;;;;;;;9.07;8.23;;;29.60;19.20;;;;;;5076831;28;20238;-73
2023/08/27 12:41:43;;;;;;;8.52;7.75;;;29.90;14.00;;;;;;5080109;28;20244;-71
2023/08/27 12:44:33;;;;;;;8.95;8.15;;;29.90;14.00;;;;;;5103353;28;20252;-71
2023/08/27 12:47:23;;;;;;;9.95;8.95;;;29.70;32.00;;;;;;5088877;28;20223;-70
2023/08/27 12:50:13;;;;;;;9.25;8.35;;;29.40;32.70;;;;;;5082988;28;20288;-72
2023/08/27 12:53:01;;;;;;;9.60;8.55;;;29.20;49.30;;;;;;5079669;28;20241;-73
2023/08/27 12:55:50;;;;;;;9.90;7.68;;;29.00;48.10;;;;;;5094077;28;20233;-70
2023/08/27 12:58:42;;;;;;;9.55;8.63;;;29.00;36.40;;;;;;5080648;28;20751;-73
2023/08/27 13:01:32;;;;;;;9.35;8.35;;;28.80;67.90;;;;;;5088948;28;20246;-72
2023/08/27 13:04:22;;;;;;;10.45;8.52;;;28.90;50.60;;;;;;5094979;28;20226;-71
2023/08/27 13:07:11;;;;;;;9.77;8.95;;;29.10;43.70;;;;;;5096606;28;20247;-73
2023/08/27 13:10:00;;;;;;;10.57;9.48;;;29.10;49.00;;;;;;5097746;28;20248;-73
2023/08/27 13:12:49;;;;;;;9.68;8.63;;;28.90;46.50;;;;;;5096537;28;20218;-71
2023/08/27 13:15:38;;;;;;;12.30;9.32;;;28.80;67.60;;;;;;5081023;28;20222;-73
2023/08/27 13:18:30;;;;;;;10.68;9.52;;;28.90;58.90;;;;;;5096853;28;20228;-72
2023/08/27 13:21:20;;;;;;;12.85;10.75;;;28.50;85.80;;;;;;5069305;28;20756;-72
2023/08/27 13:24:10;;;;;;;11.77;10.65;;;28.40;77.50;;;;;;5072950;28;20606;-72
2023/08/27 13:26:59;;;;;;;11.38;10.15;;;28.30;87.10;;;;;;5073127;28;20369;-72
2023/08/27 13:29:48;;;;;;;12.93;11.60;;;28.30;91.30;;;;;;5068042;28;20215;-71
2023/08/27 13:32:37;;;;;;;12.65;11.40;;;28.30;92.60;;;;;;5077556;28;20622;-73
2023/08/27 13:35:27;;;;;;;16.08;13.20;;;28.20;82.40;;;;;;5096449;28;20262;-71
2023/08/27 13:38:17;;;;;;;15.25;13.63;;;28.10;95.60;;;;;;5097012;28;20222;-73
2023/08/27 13:41:06;;;;;;;16.90;13.25;;;27.90;96.10;;;;;;5096500;28;20229;-72
2023/08/27 13:43:56;;;;;;;17.08;13.68;;;27.70;99.90;;;;;;5073684;28;20286;-72
2023/08/27 13:46:45;;;;;;;17.52;13.90;;;27.80;99.90;;;;;;5071835;28;20605;-73
2023/08/27 13:49:34;;;;;;;15.65;14.07;;;27.90;99.90;;;;;;5075760;28;20224;-74
2023/08/27 13:52:24;;;;;;;16.95;13.65;;;27.90;99.90;;;;;;5048532;28;20222;-71
2023/08/27 13:55:14;;;;;;;16.48;12.35;;;28.00;99.90;;;;;;5079503;28;20333;-72
2023/08/27 13:58:03;;;;;;;15.10;12.90;;;27.90;95.90;;;;;;5074485;28;20219;-72
2023/08/27 14:00:52;;;;;;;14.50;12.48;;;27.90;92.10;;;;;;5078447;28;20233;-72
2023/08/27 14:03:41;;;;;;;14.45;12.55;;;27.90;90.20;;;;;;5075485;28;20223;-72
2023/08/27 14:06:30;;;;;;;17.00;14.38;;;27.90;74.80;;;;;;5078408;28;20226;-72
2023/08/27 14:09:21;;;;;;;15.38;13.02;;;28.00;93.40;;;;;;5079142;28;20222;-72
2023/08/27 14:12:10;;;;;;;16.30;12.90;;;27.90;95.80;;;;;;5082635;28;20681;-69
2023/08/27 14:14:59;;;;;;;13.82;12.45;;;27.80;78.00;;;;;;5081281;28;20238;-73
2023/08/27 14:17:48;;;;;;;16.25;14.30;;;27.90;73.20;;;;;;5095570;28;20655;-71
2023/08/27 14:20:37;;;;;;;15.15;11.75;;;27.80;66.70;;;;;;5081416;28;20237;-71
2023/08/27 14:23:28;;;;;;;12.05;10.85;;;27.70;53.30;;;;;;5083083;28;20233;-72
2023/08/27 14:26:18;;;;;;;16.33;11.32;;;27.60;44.10;;;;;;5077358;28;20987;-71
2023/08/27 14:29:09;;;;;;;11.40;10.25;;;27.60;41.10;;;;;;5095102;28;20226;-69
2023/08/27 14:32:03;;;;;;;12.43;10.80;;;27.60;44.10;;;;;;5084950;28;20230;-70
2023/08/27 14:34:51;;;;;;;12.45;10.85;;;27.60;54.80;;;;;;5075981;28;20230;-72
2023/08/27 14:37:44;;;;;;;15.85;11.80;;;27.50;57.30;;;;;;5096401;28;20257;-71
2023/08/27 14:40:35;;;;;;;15.60;11.85;;;27.40;63.40;;;;;;5087126;28;20234;-71
2023/08/27 14:43:25;;;;;;;13.80;12.40;;;27.50;73.50;;;;;;5083227;28;20233;-70